createdAt,value
2023-03-27T00:01:18.628Z,50.30
2023-03-27T00:03:49.746Z,50.30
2023-03-27T00:06:20.705Z,50.30
2023-03-27T00:08:52.649Z,50.40
2023-03-27T00:11:21.299Z,50.40
2023-03-27T00:13:51.438Z,50.50
2023-03-27T00:16:20.068Z,50.50
2023-03-27T00:18:48.733Z,50.50
2023-03-27T00:21:16.894Z,50.50
2023-03-27T00:23:46.884Z,50.50
2023-03-27T00:26:15.244Z,50.50
2023-03-27T00:28:43.381Z,50.50
2023-03-27T00:31:12.589Z,50.50
2023-03-27T00:33:40.929Z,50.40
2023-03-27T00:36:10.262Z,50.50
2023-03-27T00:38:39.409Z,50.40
2023-03-27T00:41:10.260Z,50.40
2023-03-27T00:43:43.730Z,50.30
2023-03-27T00:46:34.200Z,50.30
2023-03-27T00:49:05.838Z,50.30
2023-03-27T00:51:36.605Z,50.30
2023-03-27T00:54:06.197Z,50.30
2023-03-27T00:56:38.867Z,50.30
2023-03-27T00:59:11.294Z,50.20
2023-03-27T01:01:41.200Z,50.10
2023-03-27T01:04:10.896Z,50.00
2023-03-27T01:06:42.139Z,50.10
2023-03-27T01:09:11.199Z,50.10
2023-03-27T01:12:08.558Z,50.10
2023-03-27T01:14:50.927Z,50.00
2023-03-27T01:17:32.781Z,50.10
2023-03-27T01:20:20.383Z,50.10
2023-03-27T01:23:36.115Z,50.00
2023-03-27T01:26:57.639Z,50.00
2023-03-27T01:29:46.403Z,50.00
2023-03-27T01:32:50.593Z,50.10
2023-03-27T01:36:02.318Z,50.10
2023-03-27T01:39:05.315Z,50.20
2023-03-27T01:41:42.084Z,50.20
2023-03-27T01:44:16.541Z,50.30
2023-03-27T01:46:51.356Z,50.30
2023-03-27T01:49:26.288Z,50.30
2023-03-27T01:51:58.863Z,50.30
2023-03-27T01:54:30.811Z,50.30
2023-03-27T01:57:05.701Z,50.40
2023-03-27T01:59:39.054Z,50.90
2023-03-27T02:02:12.782Z,50.40
2023-03-27T02:04:46.677Z,50.50
2023-03-27T02:07:19.845Z,50.50
2023-03-27T02:09:51.309Z,50.50
2023-03-27T02:12:24.621Z,50.50
2023-03-27T02:14:55.347Z,50.50
2023-03-27T02:17:26.173Z,50.50
2023-03-27T02:20:00.391Z,50.50
2023-03-27T02:22:38.377Z,50.60
2023-03-27T02:25:25.942Z,50.70
2023-03-27T02:28:05.873Z,50.70
2023-03-27T02:30:40.433Z,50.80
2023-03-27T02:33:19.337Z,50.80
2023-03-27T02:35:54.860Z,50.80
2023-03-27T02:38:31.226Z,50.80
2023-03-27T02:41:10.077Z,50.80
2023-03-27T02:43:55.365Z,50.80
2023-03-27T02:46:41.387Z,50.80
2023-03-27T02:49:15.443Z,50.80
2023-03-27T02:51:47.269Z,50.80
2023-03-27T02:54:19.691Z,50.80
2023-03-27T02:56:51.726Z,50.80
2023-03-27T02:59:31.816Z,50.80
2023-03-27T03:02:01.386Z,50.90
2023-03-27T03:04:41.942Z,50.80
2023-03-27T03:07:38.087Z,50.90
2023-03-27T03:10:09.709Z,50.80
2023-03-27T03:12:38.048Z,50.80
2023-03-27T03:15:08.988Z,50.90
2023-03-27T03:17:37.864Z,50.90
2023-03-27T03:20:07.625Z,51.00
2023-03-27T03:22:36.337Z,51.00
2023-03-27T03:25:05.515Z,51.10
2023-03-27T03:27:34.141Z,51.10
2023-03-27T03:30:16.757Z,51.10
2023-03-27T03:33:05.959Z,51.20
2023-03-27T03:35:35.050Z,51.10
2023-03-27T03:38:07.916Z,51.20
2023-03-27T03:40:45.069Z,51.30
2023-03-27T03:43:13.089Z,51.30
2023-03-27T03:45:42.578Z,51.30
2023-03-27T03:48:10.646Z,51.40
2023-03-27T03:50:38.840Z,51.40
2023-03-27T03:53:06.763Z,51.50
2023-03-27T03:55:35.085Z,51.50
2023-03-27T03:58:03.130Z,51.50
2023-03-27T04:00:34.810Z,51.50
2023-03-27T04:03:04.751Z,51.60
2023-03-27T04:05:36.126Z,51.50
2023-03-27T04:08:07.053Z,51.70
2023-03-27T04:10:53.025Z,51.60
2023-03-27T04:13:41.135Z,51.60
2023-03-27T04:16:23.043Z,51.70
2023-03-27T04:18:55.554Z,51.70
2023-03-27T04:21:26.995Z,51.80
2023-03-27T04:24:02.350Z,51.80
2023-03-27T04:26:43.399Z,51.80
2023-03-27T04:29:26.810Z,51.80
2023-03-27T04:32:01.431Z,51.90
2023-03-27T04:34:42.828Z,51.90
2023-03-27T04:37:10.903Z,51.90
2023-03-27T04:39:46.508Z,52.00
2023-03-27T04:42:15.174Z,52.00
2023-03-27T04:44:46.328Z,52.10
2023-03-27T04:47:14.539Z,52.00
2023-03-27T04:49:46.714Z,52.10
2023-03-27T04:52:21.481Z,52.10
2023-03-27T04:54:49.493Z,52.10
2023-03-27T04:57:19.025Z,52.20
2023-03-27T04:59:49.430Z,52.20
2023-03-27T05:02:36.179Z,52.20
2023-03-27T05:05:14.099Z,52.30
2023-03-27T05:07:46.663Z,52.30
2023-03-27T05:10:21.921Z,52.30
2023-03-27T05:12:54.206Z,52.40
2023-03-27T05:15:24.478Z,52.40
2023-03-27T05:17:54.471Z,52.40
2023-03-27T05:20:27.291Z,52.50
2023-03-27T05:22:56.200Z,52.50
2023-03-27T05:25:28.798Z,52.50
2023-03-27T05:27:58.349Z,52.50
2023-03-27T05:30:30.781Z,52.60
2023-03-27T05:33:29.001Z,52.60
2023-03-27T05:35:58.611Z,52.60
2023-03-27T05:38:27.401Z,52.70
2023-03-27T05:41:16.146Z,52.70
2023-03-27T05:43:49.544Z,52.70
2023-03-27T05:46:21.181Z,52.80
2023-03-27T05:49:10.024Z,52.90
2023-03-27T05:51:39.585Z,52.80
2023-03-27T05:54:19.864Z,52.80
2023-03-27T05:57:01.814Z,52.80
2023-03-27T05:59:29.755Z,52.80
2023-03-27T06:02:12.819Z,52.90
2023-03-27T06:04:47.801Z,53.50
2023-03-27T06:07:30.239Z,52.90
2023-03-27T06:10:03.278Z,53.00
2023-03-27T06:12:34.976Z,53.10
2023-03-27T06:15:12.190Z,53.10
2023-03-27T06:18:06.754Z,53.10
2023-03-27T06:20:38.056Z,53.20
2023-03-27T06:23:07.917Z,53.10
2023-03-27T06:25:39.120Z,53.20
2023-03-27T06:28:09.809Z,53.20
2023-03-27T06:30:57.575Z,53.30
2023-03-27T06:33:46.670Z,53.20
2023-03-27T06:36:32.442Z,53.10
2023-03-27T06:39:06.382Z,53.10
2023-03-27T06:41:35.651Z,53.20
2023-03-27T06:44:30.053Z,53.20
2023-03-27T06:47:14.168Z,53.20
2023-03-27T06:50:00.645Z,53.30
2023-03-27T06:52:29.773Z,53.40
2023-03-27T06:55:15.071Z,53.70
2023-03-27T06:57:53.434Z,53.50
2023-03-27T07:00:24.567Z,53.50
2023-03-27T07:03:11.992Z,53.60
2023-03-27T07:06:00.544Z,53.80
2023-03-27T07:08:35.022Z,53.80
2023-03-27T07:11:11.577Z,53.80
2023-03-27T07:13:46.524Z,53.70
2023-03-27T07:16:22.563Z,53.60
2023-03-27T07:18:50.761Z,53.50
2023-03-27T07:21:18.935Z,53.50
2023-03-27T07:23:46.830Z,53.50
2023-03-27T07:26:20.522Z,53.50
2023-03-27T07:29:00.687Z,53.50
2023-03-27T07:31:51.196Z,53.50
2023-03-27T07:34:17.904Z,53.30
2023-03-27T07:37:15.929Z,53.20
2023-03-27T07:40:08.693Z,53.20
2023-03-27T07:42:44.739Z,53.30
2023-03-27T07:45:19.440Z,53.30
2023-03-27T07:47:49.812Z,53.10
2023-03-27T07:50:20.569Z,53.40
2023-03-27T07:52:49.762Z,52.80
2023-03-27T07:55:19.646Z,52.80
2023-03-27T07:58:02.761Z,53.00
2023-03-27T08:00:35.371Z,53.20
2023-03-27T08:03:15.026Z,53.40
2023-03-27T08:05:46.066Z,53.40
2023-03-27T08:08:17.193Z,53.50
2023-03-27T08:10:48.954Z,53.20
2023-03-27T08:13:19.870Z,53.30
2023-03-27T08:15:47.879Z,53.10
2023-03-27T08:18:25.751Z,53.10
2023-03-27T08:20:57.095Z,52.80
2023-03-27T08:23:27.899Z,52.90
2023-03-27T08:26:15.996Z,52.90
2023-03-27T08:28:56.401Z,52.50
2023-03-27T08:31:29.234Z,52.50
2023-03-27T08:34:01.150Z,52.30
2023-03-27T08:36:38.228Z,52.40
2023-03-27T08:39:08.341Z,51.40
2023-03-27T08:41:51.904Z,51.40
2023-03-27T08:44:29.245Z,51.10
2023-03-27T08:47:01.248Z,51.40
2023-03-27T08:49:36.030Z,51.70
2023-03-27T08:52:32.996Z,52.00
2023-03-27T08:55:13.593Z,53.10
2023-03-27T08:57:52.118Z,53.40
2023-03-27T09:00:31.914Z,54.20
2023-03-27T09:03:16.471Z,53.90
2023-03-27T09:05:48.431Z,53.20
2023-03-27T09:08:28.792Z,52.70
2023-03-27T09:11:04.451Z,51.10
2023-03-27T09:13:45.214Z,52.70
2023-03-27T09:16:20.055Z,53.10
2023-03-27T09:18:54.415Z,51.10
2023-03-27T09:21:35.968Z,48.50
2023-03-27T09:24:15.523Z,47.00
2023-03-27T09:27:17.963Z,46.20
2023-03-27T09:30:05.411Z,44.10
2023-03-27T09:32:56.380Z,44.40
2023-03-27T09:35:25.233Z,44.20
2023-03-27T09:37:59.567Z,44.90
2023-03-27T09:40:33.565Z,45.20
2023-03-27T09:43:09.251Z,45.60
2023-03-27T09:45:41.807Z,46.00
2023-03-27T09:48:17.266Z,46.40
2023-03-27T09:50:49.291Z,46.60
2023-03-27T09:53:32.181Z,46.90
2023-03-27T09:56:17.475Z,47.40
2023-03-27T09:58:51.969Z,48.10
2023-03-27T10:01:29.337Z,48.50
2023-03-27T10:04:14.094Z,48.80
2023-03-27T10:06:47.391Z,49.70
2023-03-27T10:09:35.532Z,52.50
2023-03-27T10:12:18.909Z,54.30
2023-03-27T10:14:52.748Z,52.60
2023-03-27T10:17:30.357Z,50.40
2023-03-27T10:20:13.077Z,48.40
2023-03-27T10:22:43.969Z,46.50
2023-03-27T10:25:20.024Z,46.20
2023-03-27T10:28:11.671Z,45.70
2023-03-27T10:31:03.489Z,47.70
2023-03-27T10:33:45.325Z,50.00
2023-03-27T10:36:22.801Z,52.50
2023-03-27T10:38:56.521Z,53.80
2023-03-27T10:41:41.667Z,51.30
2023-03-27T10:44:19.123Z,52.50
2023-03-27T10:46:54.315Z,51.80
2023-03-27T10:49:31.166Z,51.60
2023-03-27T10:52:12.326Z,50.00
2023-03-27T10:55:09.087Z,49.10
2023-03-27T10:57:38.247Z,47.20
2023-03-27T11:00:13.626Z,45.80
2023-03-27T11:02:57.308Z,42.80
2023-03-27T11:05:30.790Z,40.70
2023-03-27T11:08:10.259Z,39.30
2023-03-27T11:10:41.534Z,38.40
2023-03-27T11:13:16.225Z,38.50
2023-03-27T11:15:48.793Z,38.40
2023-03-27T11:18:41.928Z,39.20
2023-03-27T11:21:13.634Z,40.30
2023-03-27T11:23:59.996Z,41.50
2023-03-27T11:26:45.856Z,43.40
2023-03-27T11:29:20.532Z,44.20
2023-03-27T11:31:54.569Z,45.50
2023-03-27T11:34:48.059Z,46.30
2023-03-27T11:37:46.758Z,46.40
2023-03-27T11:40:23.934Z,44.80
2023-03-27T11:42:59.328Z,42.30
2023-03-27T11:45:32.466Z,41.30
2023-03-27T11:48:15.605Z,40.40
2023-03-27T11:50:54.125Z,39.30
2023-03-27T11:53:38.192Z,39.70
2023-03-27T11:56:46.669Z,39.10
2023-03-27T11:59:54.514Z,38.70
2023-03-27T12:02:46.617Z,39.40
2023-03-27T12:05:24.952Z,40.90
2023-03-27T12:08:09.438Z,41.90
2023-03-27T12:10:42.521Z,42.70
2023-03-27T12:14:17.589Z,42.90
2023-03-27T12:17:12.991Z,41.00
2023-03-27T12:20:26.811Z,41.00
2023-03-27T12:23:23.922Z,39.50
2023-03-27T12:26:43.763Z,39.80
2023-03-27T12:29:49.035Z,38.80
2023-03-27T12:32:28.313Z,40.10
2023-03-27T12:35:00.522Z,41.00
2023-03-27T12:37:41.890Z,41.70
2023-03-27T12:40:28.169Z,41.20
2023-03-27T12:43:11.915Z,39.80
2023-03-27T12:46:04.866Z,39.50
2023-03-27T12:48:33.238Z,38.80
2023-03-27T12:51:01.516Z,38.90
2023-03-27T12:53:50.257Z,38.90
2023-03-27T12:56:35.735Z,39.70
2023-03-27T12:59:15.571Z,40.80
2023-03-27T13:02:24.913Z,40.80
2023-03-27T13:05:27.397Z,41.20
2023-03-27T13:08:35.040Z,41.70
2023-03-27T13:11:23.522Z,42.40
2023-03-27T13:14:27.227Z,43.10
2023-03-27T13:17:13.090Z,42.70
2023-03-27T13:19:51.670Z,43.00
2023-03-27T13:22:42.118Z,43.10
2023-03-27T13:25:33.325Z,42.40
2023-03-27T13:28:29.669Z,41.90
2023-03-27T13:31:09.570Z,40.20
2023-03-27T13:34:12.019Z,40.10
2023-03-27T13:36:43.558Z,38.40
2023-03-27T13:39:24.952Z,38.40
2023-03-27T13:42:07.385Z,38.00
2023-03-27T13:44:54.286Z,37.70
2023-03-27T13:48:01.174Z,38.00
2023-03-27T13:50:57.703Z,39.10
2023-03-27T13:53:38.314Z,40.70
2023-03-27T13:56:48.584Z,41.30
2023-03-27T14:00:07.283Z,41.80
2023-03-27T14:03:41.002Z,41.70
2023-03-27T14:06:31.506Z,41.50
2023-03-27T14:09:06.811Z,41.80
2023-03-27T14:11:51.230Z,41.70
2023-03-27T14:15:08.650Z,40.40
2023-03-27T14:17:49.196Z,39.90
2023-03-27T14:20:23.712Z,38.60
2023-03-27T14:22:56.889Z,38.60
2023-03-27T14:25:34.225Z,38.40
2023-03-27T14:28:32.877Z,38.20
2023-03-27T14:31:08.376Z,38.90
2023-03-27T14:34:05.288Z,40.20
2023-03-27T14:36:42.322Z,41.40
2023-03-27T14:39:20.510Z,41.80
2023-03-27T14:41:55.855Z,41.60
2023-03-27T14:44:26.871Z,41.50
2023-03-27T14:47:01.949Z,41.70
2023-03-27T14:49:36.876Z,41.80
2023-03-27T14:52:09.108Z,41.80
2023-03-27T14:55:06.416Z,41.70
2023-03-27T14:57:41.253Z,41.70
2023-03-27T15:00:16.638Z,41.40
2023-03-27T15:03:41.430Z,41.00
2023-03-27T15:06:15.122Z,40.90
2023-03-27T15:08:53.230Z,40.70
2023-03-27T15:11:57.877Z,40.50
2023-03-27T15:14:31.524Z,40.20
2023-03-27T15:17:06.789Z,39.70
2023-03-27T15:19:45.679Z,39.10
2023-03-27T15:22:23.469Z,39.20
2023-03-27T15:24:55.326Z,39.00
2023-03-27T15:27:28.663Z,39.00
2023-03-27T15:29:59.844Z,38.70
2023-03-27T15:32:32.672Z,38.90
2023-03-27T15:35:05.259Z,38.90
2023-03-27T15:37:35.051Z,39.20
2023-03-27T15:40:14.456Z,39.50
2023-03-27T15:42:47.856Z,39.90
2023-03-27T15:45:17.162Z,40.50
2023-03-27T15:47:46.348Z,41.00
2023-03-27T15:50:21.190Z,41.30
2023-03-27T15:52:50.932Z,41.60
2023-03-27T15:55:40.816Z,41.40
2023-03-27T15:58:24.339Z,41.40
2023-03-27T16:00:54.173Z,41.30
2023-03-27T16:03:24.935Z,41.40
2023-03-27T16:05:58.366Z,41.20
2023-03-27T16:08:32.655Z,41.00
2023-03-27T16:11:01.320Z,40.90
2023-03-27T16:13:35.165Z,40.80
2023-03-27T16:16:05.131Z,40.70
2023-03-27T16:18:35.728Z,40.30
2023-03-27T16:21:10.517Z,39.90
2023-03-27T16:23:38.589Z,40.50
2023-03-27T16:26:08.828Z,40.60
2023-03-27T16:28:37.079Z,40.60
2023-03-27T16:31:12.485Z,40.50
2023-03-27T16:33:42.978Z,40.50
2023-03-27T16:36:15.444Z,40.60
2023-03-27T16:38:44.337Z,40.60
2023-03-27T16:41:14.297Z,40.90
2023-03-27T16:43:42.876Z,40.90
2023-03-27T16:46:17.593Z,40.80
2023-03-27T16:48:45.909Z,40.90
2023-03-27T16:51:15.319Z,40.60
2023-03-27T16:53:43.330Z,40.40
2023-03-27T16:56:12.288Z,40.40
2023-03-27T16:58:40.337Z,39.90
2023-03-27T17:01:09.112Z,39.80
2023-03-27T17:03:37.772Z,39.70
2023-03-27T17:06:07.974Z,39.40
2023-03-27T17:08:38.324Z,39.00
2023-03-27T17:11:09.438Z,38.70
2023-03-27T17:13:38.392Z,38.80
2023-03-27T17:16:08.484Z,38.90
2023-03-27T17:18:36.424Z,38.90
2023-03-27T17:21:05.123Z,39.10
2023-03-27T17:23:33.373Z,39.20
2023-03-27T17:26:04.219Z,39.40
2023-03-27T17:28:32.725Z,39.50
2023-03-27T17:31:04.783Z,39.60
2023-03-27T17:33:34.085Z,39.70
2023-03-27T17:36:02.552Z,39.80
2023-03-27T17:38:31.084Z,39.90
2023-03-27T17:40:59.050Z,40.00
2023-03-27T17:43:28.616Z,40.00
2023-03-27T17:45:56.723Z,40.10
2023-03-27T17:48:24.965Z,40.20
2023-03-27T17:51:07.535Z,40.40
2023-03-27T17:53:36.952Z,40.40
2023-03-27T17:56:05.939Z,40.50
2023-03-27T17:58:37.164Z,40.60
2023-03-27T18:01:14.687Z,40.60
2023-03-27T18:03:43.054Z,40.80
2023-03-27T18:06:11.050Z,40.90
2023-03-27T18:08:39.072Z,41.00
2023-03-27T18:11:10.098Z,41.10
2023-03-27T18:13:39.708Z,41.30
2023-03-27T18:16:10.577Z,41.40
2023-03-27T18:18:39.953Z,41.50
2023-03-27T18:21:09.484Z,41.70
2023-03-27T18:23:46.385Z,41.90
2023-03-27T18:26:15.893Z,42.00
2023-03-27T18:28:45.470Z,42.10
2023-03-27T18:31:13.683Z,42.30
2023-03-27T18:33:41.717Z,42.30
2023-03-27T18:36:11.879Z,42.50
2023-03-27T18:38:41.914Z,42.50
2023-03-27T18:41:11.443Z,42.90
2023-03-27T18:43:39.836Z,42.90
2023-03-27T18:46:10.786Z,43.50
2023-03-27T18:48:39.023Z,43.10
2023-03-27T18:51:07.346Z,43.20
2023-03-27T18:53:35.706Z,43.30
2023-03-27T18:56:04.053Z,43.60
2023-03-27T18:58:32.490Z,43.50
2023-03-27T19:01:00.858Z,43.50
2023-03-27T19:03:35.036Z,43.50
2023-03-27T19:06:05.512Z,43.50
2023-03-27T19:08:37.341Z,43.40
2023-03-27T19:11:05.661Z,43.40
2023-03-27T19:13:57.064Z,43.50
2023-03-27T19:16:36.381Z,43.40
2023-03-27T19:19:34.182Z,43.40
2023-03-27T19:22:20.340Z,43.50
2023-03-27T19:24:54.729Z,43.50
2023-03-27T19:27:23.675Z,43.60
2023-03-27T19:29:53.403Z,43.70
2023-03-27T19:32:21.443Z,43.70
2023-03-27T19:34:51.223Z,43.80
2023-03-27T19:37:19.448Z,43.80
2023-03-27T19:39:47.642Z,43.80
2023-03-27T19:42:16.113Z,43.90
2023-03-27T19:44:44.335Z,43.80
2023-03-27T19:47:12.330Z,44.30
2023-03-27T19:49:41.257Z,43.80
2023-03-27T19:52:29.879Z,43.90
2023-03-27T19:54:57.968Z,43.90
2023-03-27T19:57:26.109Z,44.00
2023-03-27T19:59:54.198Z,44.10
2023-03-27T20:02:22.316Z,44.10
2023-03-27T20:04:50.925Z,44.20
2023-03-27T20:07:19.035Z,44.20
2023-03-27T20:09:48.499Z,44.30
2023-03-27T20:12:19.713Z,44.50
2023-03-27T20:14:58.773Z,44.40
2023-03-27T20:17:36.163Z,44.50
2023-03-27T20:20:06.028Z,44.50
2023-03-27T20:22:38.594Z,44.70
2023-03-27T20:25:33.836Z,44.70
2023-03-27T20:28:02.767Z,44.70
2023-03-27T20:30:31.735Z,45.00
2023-03-27T20:33:02.990Z,45.00
2023-03-27T20:35:32.990Z,45.00
2023-03-27T20:38:04.685Z,45.10
2023-03-27T20:43:19.447Z,45.30
2023-03-27T20:45:47.519Z,45.60
2023-03-27T20:48:18.002Z,45.40
2023-03-27T20:50:51.493Z,45.50
2023-03-27T20:53:26.136Z,45.50
2023-03-27T20:55:59.954Z,45.50
2023-03-27T20:58:29.035Z,45.60
2023-03-27T21:00:57.092Z,45.70
2023-03-27T21:03:25.470Z,45.80
2023-03-27T21:05:53.535Z,45.90
2023-03-27T21:08:21.744Z,45.80
2023-03-27T21:10:54.038Z,46.00
2023-03-27T21:13:23.260Z,46.00
2023-03-27T21:15:51.467Z,46.20
2023-03-27T21:18:19.748Z,46.00
2023-03-27T21:20:47.903Z,46.00
2023-03-27T21:23:15.827Z,46.10
2023-03-27T21:25:45.224Z,46.10
2023-03-27T21:28:13.967Z,46.20
2023-03-27T21:30:46.540Z,46.20
2023-03-27T21:33:16.477Z,46.30
2023-03-27T21:35:47.273Z,46.30
2023-03-27T21:38:17.008Z,46.80
2023-03-27T21:40:46.499Z,46.40
2023-03-27T21:43:14.580Z,46.50
2023-03-27T21:45:44.217Z,46.50
2023-03-27T21:48:12.399Z,47.00
2023-03-27T21:50:40.680Z,46.60
2023-03-27T21:53:09.204Z,46.60
2023-03-27T21:55:37.422Z,46.70
2023-03-27T21:58:06.089Z,46.70
2023-03-27T22:00:34.146Z,46.80
2023-03-27T22:03:03.828Z,46.90
2023-03-27T22:05:32.051Z,46.90
2023-03-27T22:08:00.041Z,47.00
2023-03-27T22:10:28.166Z,46.90
2023-03-27T22:12:56.142Z,47.00
2023-03-27T22:15:24.319Z,47.10
2023-03-27T22:17:52.364Z,47.10
2023-03-27T22:20:21.981Z,47.10
2023-03-27T22:22:50.152Z,47.20
2023-03-27T22:25:19.331Z,47.20
2023-03-27T22:27:48.153Z,47.20
2023-03-27T22:30:16.306Z,47.30
2023-03-27T22:32:44.782Z,47.20
2023-03-27T22:35:13.203Z,47.30
2023-03-27T22:37:42.680Z,47.30
2023-03-27T22:40:11.171Z,47.30
2023-03-27T22:42:39.135Z,47.50
2023-03-27T22:45:07.777Z,47.60
2023-03-27T22:47:35.982Z,48.10
2023-03-27T22:50:06.341Z,48.10
2023-03-27T22:52:34.643Z,48.00
2023-03-27T22:55:04.133Z,47.90
2023-03-27T22:57:32.252Z,48.00
2023-03-27T23:00:00.200Z,48.00
2023-03-27T23:02:28.321Z,48.00
2023-03-27T23:04:56.415Z,47.90
2023-03-27T23:07:24.684Z,48.00
2023-03-27T23:09:52.566Z,48.00
2023-03-27T23:12:21.924Z,48.10
2023-03-27T23:14:49.825Z,48.10
2023-03-27T23:17:18.043Z,48.20
2023-03-27T23:19:46.301Z,48.20
2023-03-27T23:22:14.452Z,48.10
2023-03-27T23:24:42.314Z,48.60
2023-03-27T23:27:10.609Z,48.10
2023-03-27T23:29:40.832Z,48.20
2023-03-27T23:32:09.150Z,48.20
2023-03-27T23:34:37.235Z,48.20
2023-03-27T23:37:05.675Z,48.30
2023-03-27T23:39:33.646Z,48.30
2023-03-27T23:42:01.610Z,48.30
2023-03-27T23:44:29.616Z,48.30
2023-03-27T23:46:59.046Z,48.30
2023-03-27T23:49:27.231Z,48.30
2023-03-27T23:51:55.110Z,48.40
2023-03-27T23:54:23.566Z,48.40
2023-03-27T23:56:51.505Z,48.40
2023-03-27T23:59:19.683Z,48.40
